Time;durP1;ratioP1;P1;durP2;ratioP2;P2;SDS_P1;SDS_P2;PMS_P1;PMS_P2;Temp;Humidity;BMP_temperature;BMP_pressure;BME280_temperature;BME280_humidity;BME280_pressure;Samples;Min_cycle;Max_cycle;Signal;HPM_P1;HPM_P2
2021/07/12 00:00:29;;;;;;;8.45;5.45;;;;;;;12.74;100.00;95749.41;1036770;28;20033;-51
2021/07/12 00:01:00;;;;;;;8.90;5.28;;;;;;;12.74;100.00;95749.41;1036739;28;20021;-50
2021/07/12 00:01:30;;;;;;;9.10;5.55;;;;;;;12.73;100.00;95745.16;1036549;28;20029;-52
2021/07/12 00:02:02;;;;;;;9.05;5.50;;;;;;;12.74;100.00;95753.84;1036585;28;20018;-50
2021/07/12 00:02:32;;;;;;;9.10;5.22;;;;;;;12.77;100.00;95751.81;1036667;28;20018;-53
2021/07/12 00:03:05;;;;;;;10.07;4.65;;;;;;;12.76;100.00;95750.16;1036726;28;20021;-50
2021/07/12 00:03:36;;;;;;;7.97;5.85;;;;;;;12.74;100.00;95746.78;1036177;28;20384;-51
2021/07/12 00:04:07;;;;;;;9.27;5.95;;;;;;;12.72;100.00;95746.09;1036710;28;20021;-50
2021/07/12 00:04:37;;;;;;;10.75;6.15;;;;;;;12.72;100.00;95743.47;1036671;28;20460;-50
2021/07/12 00:05:09;;;;;;;7.47;4.93;;;;;;;12.70;100.00;95748.00;1036708;28;20125;-51
2021/07/12 00:05:41;;;;;;;8.73;5.50;;;;;;;12.69;100.00;95748.13;1036577;28;20017;-50
2021/07/12 00:06:11;;;;;;;11.35;6.40;;;;;;;12.68;100.00;95749.09;1036583;28;20033;-50
2021/07/12 00:06:42;;;;;;;8.60;5.97;;;;;;;12.67;100.00;95742.16;1036614;28;20110;-50
2021/07/12 00:07:13;;;;;;;8.02;5.65;;;;;;;12.65;100.00;95744.94;1036676;28;20025;-51
2021/07/12 00:07:45;;;;;;;9.48;5.50;;;;;;;12.65;100.00;95747.56;1036570;28;20064;-51
2021/07/12 00:08:15;;;;;;;12.68;5.95;;;;;;;12.64;100.00;95746.72;1036682;28;20415;-50
2021/07/12 00:08:46;;;;;;;9.63;4.90;;;;;;;12.64;100.00;95744.09;1036773;28;20013;-51
2021/07/12 00:09:17;;;;;;;8.30;5.50;;;;;;;12.65;100.00;95744.94;1036555;28;20475;-52
2021/07/12 00:09:48;;;;;;;9.52;5.45;;;;;;;12.67;100.00;95747.44;1036637;28;20025;-51
2021/07/12 00:10:21;;;;;;;8.82;5.60;;;;;;;12.67;100.00;95744.78;1036666;28;20370;-50
2021/07/12 00:10:52;;;;;;;11.20;5.93;;;;;;;12.67;100.00;95745.66;1036722;28;20018;-50
2021/07/12 00:11:22;;;;;;;7.97;5.30;;;;;;;12.64;100.00;95746.72;1036610;28;20025;-51
2021/07/12 00:11:53;;;;;;;12.10;6.30;;;;;;;12.62;100.00;95746.00;1036570;28;20053;-52
2021/07/12 00:12:24;;;;;;;11.65;6.68;;;;;;;12.62;100.00;95750.44;1036654;28;20014;-51
2021/07/12 00:12:55;;;;;;;16.50;6.78;;;;;;;12.63;100.00;95745.06;1036814;28;20026;-50
2021/07/12 00:13:25;;;;;;;12.35;7.35;;;;;;;12.63;100.00;95747.69;1036487;28;20383;-50
2021/07/12 00:13:57;;;;;;;11.18;5.82;;;;;;;12.64;100.00;95751.16;1036113;28;20030;-51
2021/07/12 00:14:27;;;;;;;15.40;6.68;;;;;;;12.62;100.00;95745.19;1036654;28;20026;-52
2021/07/12 00:14:58;;;;;;;15.45;7.53;;;;;;;12.62;100.00;95745.19;1036710;28;20026;-51
2021/07/12 00:15:30;;;;;;;18.60;7.97;;;;;;;12.60;100.00;95739.22;1036637;28;20057;-50
2021/07/12 00:16:00;;;;;;;13.82;6.80;;;;;;;12.62;100.00;95742.56;1036562;28;20491;-51
2021/07/12 00:16:31;;;;;;;11.75;6.30;;;;;;;12.62;100.00;95742.56;1036590;28;20109;-50
2021/07/12 00:17:02;;;;;;;13.00;6.97;;;;;;;12.60;100.00;95745.31;1036724;28;20065;-50
2021/07/12 00:17:33;;;;;;;11.45;6.10;;;;;;;12.58;100.00;95731.47;1036715;28;20043;-51
2021/07/12 00:18:04;;;;;;;12.73;6.30;;;;;;;12.57;100.00;95740.28;1036498;28;20087;-49
2021/07/12 00:18:34;;;;;;;10.65;6.15;;;;;;;12.57;100.00;95737.66;1036642;28;20079;-51
2021/07/12 00:19:05;;;;;;;11.65;6.72;;;;;;;12.57;100.00;95729.78;1036689;28;20072;-50
2021/07/12 00:19:36;;;;;;;12.93;6.65;;;;;;;12.56;100.00;95738.63;1036648;28;20157;-51
2021/07/12 00:20:08;;;;;;;12.90;6.85;;;;;;;12.57;100.00;95732.41;1036437;28;20120;-50
2021/07/12 00:20:38;;;;;;;11.95;6.95;;;;;;;12.57;100.00;95737.66;1036565;28;20041;-50
2021/07/12 00:21:09;;;;;;;12.55;6.35;;;;;;;12.58;100.00;95735.88;1036670;28;20025;-50
2021/07/12 00:21:41;;;;;;;9.70;6.15;;;;;;;12.60;100.00;95736.59;1036639;28;20487;-50
2021/07/12 00:22:12;;;;;;;11.27;6.60;;;;;;;12.60;100.00;95732.16;1036421;28;20040;-51
2021/07/12 00:22:43;;;;;;;9.07;5.35;;;;;;;12.61;100.00;95727.72;1036614;28;20395;-51
2021/07/12 00:23:14;;;;;;;8.90;4.90;;;;;;;12.63;100.00;95734.56;1036655;28;20071;-50
2021/07/12 00:23:45;;;;;;;13.18;6.30;;;;;;;12.63;100.00;95731.06;1036050;28;20030;-50
2021/07/12 00:24:19;;;;;;;13.43;6.00;;;;;;;12.64;100.00;95733.56;1036430;28;20101;-52
2021/07/12 00:24:50;;;;;;;11.25;5.88;;;;;;;12.63;100.00;95729.31;1036621;28;20022;-48
2021/07/12 00:25:21;;;;;;;8.85;5.80;;;;;;;12.62;100.00;95732.03;1036707;28;20029;-51
2021/07/12 00:25:52;;;;;;;10.48;5.65;;;;;;;12.62;100.00;95732.88;1036586;28;20034;-51
2021/07/12 00:26:23;;;;;;;9.38;5.55;;;;;;;12.60;100.00;95726.09;1036317;28;20022;-50
2021/07/12 00:26:53;;;;;;;10.60;6.03;;;;;;;12.57;100.00;95729.78;1036634;28;20428;-51
2021/07/12 00:27:24;;;;;;;12.60;5.47;;;;;;;12.57;100.00;95726.31;1036716;28;20029;-52
2021/07/12 00:27:55;;;;;;;12.32;5.88;;;;;;;12.55;100.00;95730.88;1036661;28;20379;-51
2021/07/12 00:28:26;;;;;;;7.72;4.97;;;;;;;12.54;100.00;95723.97;1036467;28;20050;-50
2021/07/12 00:28:57;;;;;;;8.52;5.32;;;;;;;12.52;100.00;95723.22;1036618;28;20017;-50
2021/07/12 00:29:28;;;;;;;9.25;5.20;;;;;;;12.52;100.00;95723.22;1036559;28;20034;-50
2021/07/12 00:30:00;;;;;;;14.52;7.22;;;;;;;12.56;100.00;95720.25;1036549;28;20026;-51
2021/07/12 00:30:31;;;;;;;17.67;6.63;;;;;;;12.60;100.00;95715.56;1036484;28;20435;-51
2021/07/12 00:31:02;;;;;;;14.60;6.90;;;;;;;12.58;100.00;95707.81;1036625;28;20049;-50
2021/07/12 00:31:33;;;;;;;11.77;6.05;;;;;;;12.57;100.00;95715.81;1036698;28;20018;-51
2021/07/12 00:32:05;;;;;;;17.67;7.07;;;;;;;12.61;100.00;95720.72;1036507;28;20472;-50
2021/07/12 00:32:36;;;;;;;11.00;6.50;;;;;;;12.61;100.00;95711.97;1036492;28;20192;-50
2021/07/12 00:33:07;;;;;;;15.02;6.53;;;;;;;12.58;100.00;95713.06;1036558;28;20468;-51
2021/07/12 00:33:39;;;;;;;13.63;6.00;;;;;;;12.56;100.00;95715.00;1035991;28;20014;-49
2021/07/12 00:34:11;;;;;;;14.20;6.65;;;;;;;12.56;100.00;95706.28;1036544;28;20014;-52
2021/07/12 00:34:41;;;;;;;14.55;6.97;;;;;;;12.52;100.00;95707.47;1036440;28;20025;-49
2021/07/12 00:35:13;;;;;;;20.10;7.53;;;;;;;12.50;100.00;95710.25;1036594;28;20017;-53
2021/07/12 00:35:44;;;;;;;16.83;6.82;;;;;;;12.49;100.00;95711.19;1036585;28;20021;-50
2021/07/12 00:36:15;;;;;;;14.65;7.10;;;;;;;12.49;100.00;95708.56;1036469;28;20013;-49
2021/07/12 00:36:46;;;;;;;10.05;6.25;;;;;;;12.48;100.00;95709.53;1036548;28;20026;-49
2021/07/12 00:37:16;;;;;;;12.70;5.97;;;;;;;12.50;100.00;95707.63;1036533;28;20025;-51
2021/07/12 00:37:47;;;;;;;11.52;5.93;;;;;;;12.48;100.00;95704.28;1036652;28;20056;-51
2021/07/12 00:38:18;;;;;;;11.75;5.50;;;;;;;12.50;100.00;95712.00;1036494;28;20047;-52
2021/07/12 00:38:48;;;;;;;8.10;5.35;;;;;;;12.50;100.00;95715.50;1036488;28;20444;-51
2021/07/12 00:39:19;;;;;;;11.00;5.20;;;;;;;12.49;100.00;95710.38;1036550;28;20044;-50
2021/07/12 00:39:50;;;;;;;10.93;5.47;;;;;;;12.45;100.00;95713.22;1036669;28;20037;-50
2021/07/12 00:40:22;;;;;;;11.30;5.25;;;;;;;12.49;100.00;95708.56;1036435;28;20052;-51
2021/07/12 00:40:53;;;;;;;9.57;5.10;;;;;;;12.47;100.00;95707.84;1036443;28;20014;-51
2021/07/12 00:41:23;;;;;;;12.23;5.55;;;;;;;12.45;100.00;95707.97;1036598;28;20018;-51
2021/07/12 00:41:54;;;;;;;18.23;6.15;;;;;;;12.42;100.00;95713.47;1036605;28;20014;-51
2021/07/12 00:42:25;;;;;;;12.65;5.75;;;;;;;12.40;100.00;95707.50;1036515;28;20375;-51
2021/07/12 00:42:56;;;;;;;12.68;5.68;;;;;;;12.41;100.00;95706.56;1036500;28;20013;-50
2021/07/12 00:43:27;;;;;;;10.73;5.68;;;;;;;12.41;100.00;95708.38;1036399;28;20499;-53
2021/07/12 00:43:58;;;;;;;16.33;5.82;;;;;;;12.39;100.00;95711.13;1036207;28;20395;-50
2021/07/12 00:44:28;;;;;;;13.52;5.40;;;;;;;12.41;100.00;95711.00;1036443;28;20048;-53
2021/07/12 00:44:59;;;;;;;12.80;5.90;;;;;;;12.39;100.00;95711.13;1036462;28;20045;-50
2021/07/12 00:45:30;;;;;;;10.45;5.78;;;;;;;12.38;100.00;95703.34;1036509;28;20539;-50
2021/07/12 00:46:01;;;;;;;15.50;7.15;;;;;;;12.37;100.00;95707.78;1036550;28;20018;-54
2021/07/12 00:46:32;;;;;;;18.60;7.18;;;;;;;12.37;100.00;95699.03;1036509;28;20021;-50
2021/07/12 00:47:05;;;;;;;14.77;6.70;;;;;;;12.35;100.00;95701.81;1036408;28;20502;-50
2021/07/12 00:47:36;;;;;;;14.55;6.28;;;;;;;12.35;100.00;95704.44;1036652;28;20480;-51
2021/07/12 00:48:07;;;;;;;13.35;5.72;;;;;;;12.36;100.00;95698.22;1036470;28;20101;-54
2021/07/12 00:48:38;;;;;;;19.63;6.47;;;;;;;12.35;100.00;95696.56;1036498;28;20014;-50
2021/07/12 00:49:09;;;;;;;14.43;6.22;;;;;;;12.35;100.00;95699.19;1035646;28;20052;-50
2021/07/12 00:49:39;;;;;;;11.98;5.80;;;;;;;12.35;100.00;95690.44;1036121;28;20026;-51
2021/07/12 00:50:11;;;;;;;11.27;5.55;;;;;;;12.34;100.00;95694.06;1036495;28;20049;-51
2021/07/12 00:50:43;;;;;;;14.90;5.80;;;;;;;12.35;100.00;95696.56;1036564;28;20087;-51
2021/07/12 00:51:13;;;;;;;11.73;5.55;;;;;;;12.36;100.00;95692.13;1036142;28;20101;-50
2021/07/12 00:51:44;;;;;;;7.80;4.75;;;;;;;12.36;100.00;95686.88;1036408;28;20033;-50
2021/07/12 00:52:15;;;;;;;13.18;5.70;;;;;;;12.35;100.00;95688.69;1036435;28;20170;-51
2021/07/12 00:52:46;;;;;;;13.05;5.38;;;;;;;12.36;100.00;95694.75;1036553;28;20415;-50
2021/07/12 00:53:17;;;;;;;13.23;5.40;;;;;;;12.34;100.00;95681.75;1036281;28;20053;-51
2021/07/12 00:53:49;;;;;;;14.68;5.57;;;;;;;12.32;100.00;95680.22;1035921;28;20387;-51
2021/07/12 00:54:26;;;;;;;16.92;6.18;;;;;;;12.32;100.00;95685.47;1036405;28;20065;-51
2021/07/12 00:54:58;;;;;;;15.07;6.40;;;;;;;12.31;100.00;95687.25;1036539;28;20028;-51
2021/07/12 00:55:39;;;;;;;14.95;6.18;;;;;;;12.29;100.00;95685.69;1036435;28;20017;-51
2021/07/12 00:56:10;;;;;;;10.57;5.40;;;;;;;12.29;100.00;95691.78;1036459;28;20042;-51
2021/07/12 00:56:41;;;;;;;11.13;5.35;;;;;;;12.28;100.00;95682.25;1036360;28;20014;-51
2021/07/12 00:57:12;;;;;;;16.77;6.55;;;;;;;12.25;100.00;95683.31;1036458;28;20022;-50
2021/07/12 00:57:43;;;;;;;11.80;5.15;;;;;;;12.25;100.00;95680.69;1036429;28;20030;-50
2021/07/12 00:58:16;;;;;;;12.10;5.75;;;;;;;12.25;100.00;95685.94;1036465;28;20029;-50
2021/07/12 00:58:47;;;;;;;11.52;5.65;;;;;;;12.21;100.00;95674.03;1036493;28;20149;-50
2021/07/12 00:59:18;;;;;;;9.32;5.05;;;;;;;12.19;100.00;95673.31;1036467;28;20100;-52
2021/07/12 00:59:50;;;;;;;14.10;5.88;;;;;;;12.19;100.00;95675.13;1036378;28;20533;-51
2021/07/12 01:00:21;;;;;;;8.98;5.10;;;;;;;12.19;100.00;95675.13;1036396;28;20083;-50
2021/07/12 01:00:55;;;;;;;7.93;5.13;;;;;;;12.19;100.00;95678.56;1036358;28;20029;-50
2021/07/12 01:01:26;;;;;;;18.02;6.47;;;;;;;12.20;100.00;95675.00;1036310;28;20029;-50
2021/07/12 01:01:57;;;;;;;13.18;5.70;;;;;;;12.19;100.00;95677.75;1036367;28;20026;-51
2021/07/12 01:02:27;;;;;;;15.02;5.72;;;;;;;12.19;100.00;95672.50;1036451;28;20017;-50
2021/07/12 01:02:58;;;;;;;11.65;5.22;;;;;;;12.18;100.00;95676.91;1036534;28;20030;-51
2021/07/12 01:03:29;;;;;;;18.15;5.72;;;;;;;12.17;100.00;95677.03;1036086;28;20371;-49
2021/07/12 01:04:00;;;;;;;10.80;5.18;;;;;;;12.17;100.00;95679.66;1036225;28;20028;-50
2021/07/12 01:04:32;;;;;;;13.35;5.95;;;;;;;12.16;100.00;95675.34;1036396;28;20061;-51
2021/07/12 01:05:05;;;;;;;16.42;6.15;;;;;;;12.16;100.00;95675.34;1036501;28;20100;-50
2021/07/12 01:05:37;;;;;;;15.02;5.88;;;;;;;12.18;100.00;95678.69;1036476;28;20014;-51
2021/07/12 01:06:08;;;;;;;18.65;6.05;;;;;;;12.19;100.00;95675.94;1036513;28;20025;-51
2021/07/12 01:06:39;;;;;;;10.68;5.88;;;;;;;12.15;100.00;95679.78;1036198;28;20033;-50
2021/07/12 01:07:10;;;;;;;14.73;5.97;;;;;;;12.13;100.00;95681.69;1036499;28;20028;-51
2021/07/12 01:07:42;;;;;;;12.02;5.55;;;;;;;12.14;100.00;95678.09;1036406;28;20021;-50
2021/07/12 01:08:13;;;;;;;13.27;5.95;;;;;;;12.13;100.00;95678.25;1036343;28;20018;-51
2021/07/12 01:08:44;;;;;;;13.80;6.68;;;;;;;12.09;100.00;95685.53;1036469;28;20028;-52
2021/07/12 01:09:14;;;;;;;15.88;6.00;;;;;;;12.09;100.00;95674.19;1036322;28;20028;-50
2021/07/12 01:09:45;;;;;;;12.32;5.38;;;;;;;12.07;100.00;95684.84;1032037;28;20089;-51
2021/07/12 01:10:17;;;;;;;13.52;6.22;;;;;;;12.04;100.00;95679.81;1032087;28;20499;-50
2021/07/12 01:11:00;;;;;;;11.20;5.80;;;;;;;12.03;100.00;95675.50;1032060;28;20030;-50
2021/07/12 01:11:38;;;;;;;12.45;5.82;;;;;;;12.05;100.00;95676.25;1034233;28;20103;-50
2021/07/12 01:12:20;;;;;;;10.43;5.70;;;;;;;12.08;100.00;95678.59;1036295;28;20048;-50
2021/07/12 01:13:03;;;;;;;13.18;5.93;;;;;;;12.07;100.00;95676.94;1036435;28;20129;-50
2021/07/12 01:13:39;;;;;;;11.38;6.20;;;;;;;12.06;100.00;95681.34;1036092;28;20024;-50
2021/07/12 01:14:26;;;;;;;9.88;5.88;;;;;;;12.04;100.00;95670.13;1036448;28;20026;-52
2021/07/12 01:15:02;;;;;;;15.57;5.35;;;;;;;12.05;100.00;95668.38;1036526;28;20018;-50
2021/07/12 01:15:38;;;;;;;16.40;6.18;;;;;;;12.03;100.00;95670.25;1036458;28;20511;-50
2021/07/12 01:16:23;;;;;;;9.65;5.00;;;;;;;12.02;100.00;95668.59;1036385;28;20505;-51
2021/07/12 01:17:00;;;;;;;11.82;6.30;;;;;;;12.01;100.00;95670.41;1036411;28;20021;-50
2021/07/12 01:17:42;;;;;;;13.43;6.25;;;;;;;12.01;100.00;95665.16;1036472;28;20049;-51
2021/07/12 01:18:24;;;;;;;9.88;6.05;;;;;;;12.02;100.00;95666.81;1036317;28;20014;-51
2021/07/12 01:19:15;;;;;;;13.93;5.95;;;;;;;12.02;100.00;95664.19;1036381;28;20022;-51
2021/07/12 01:20:05;;;;;;;11.20;5.55;;;;;;;12.03;100.00;95667.63;1036524;28;20030;-51
2021/07/12 01:21:02;;;;;;;11.02;5.18;;;;;;;12.02;100.00;95658.09;1036278;28;20124;-52
2021/07/12 01:21:52;;;;;;;8.15;4.78;;;;;;;12.05;100.00;95663.13;1036444;28;20438;-51
2021/07/12 01:22:53;;;;;;;12.70;5.40;;;;;;;12.02;100.00;95656.31;1036242;28;20025;-51
2021/07/12 01:23:44;;;;;;;9.00;4.50;;;;;;;12.01;100.00;95657.28;1036277;28;20026;-49
2021/07/12 01:24:27;;;;;;;8.10;4.53;;;;;;;12.01;100.00;95657.28;1036371;28;20014;-51
2021/07/12 01:25:18;;;;;;;9.80;5.15;;;;;;;12.02;100.00;95660.72;1036294;28;20061;-50
2021/07/12 01:26:09;;;;;;;9.40;5.15;;;;;;;12.00;100.00;95657.41;1036424;28;20049;-51
2021/07/12 01:27:03;;;;;;;7.28;4.60;;;;;;;11.97;100.00;95650.56;1036132;28;20076;-50
2021/07/12 01:27:55;;;;;;;11.10;5.43;;;;;;;11.95;100.00;95654.28;1036396;28;20018;-51
2021/07/12 01:28:42;;;;;;;5.68;4.07;;;;;;;11.92;100.00;95655.38;1036335;28;20104;-51
2021/07/12 01:29:18;;;;;;;10.23;4.50;;;;;;;11.91;100.00;95650.25;1036350;28;20041;-51
2021/07/12 01:30:09;;;;;;;10.30;4.68;;;;;;;11.92;100.00;95658.00;1036311;28;20018;-53
2021/07/12 01:31:10;;;;;;;7.10;4.32;;;;;;;11.92;100.00;95651.91;1036160;28;20447;-50
2021/07/12 01:31:56;;;;;;;9.48;5.38;;;;;;;11.89;100.00;95652.97;1032070;28;20110;-53
2021/07/12 01:32:48;;;;;;;11.10;4.30;;;;;;;11.87;100.00;95658.34;1032072;28;20018;-51
2021/07/12 01:33:22;;;;;;;9.07;5.53;;;;;;;11.85;100.00;95659.44;1035970;28;20033;-51
2021/07/12 01:34:10;;;;;;;11.75;5.43;;;;;;;11.85;100.00;95659.44;1035789;28;20022;-50
2021/07/12 01:34:50;;;;;;;8.02;4.80;;;;;;;11.84;100.00;95663.00;1036266;28;20100;-51
2021/07/12 01:35:41;;;;;;;9.13;5.28;;;;;;;11.80;100.00;95657.16;1036485;28;20014;-50
2021/07/12 01:36:18;;;;;;;7.22;4.40;;;;;;;11.79;100.00;95663.38;1036431;28;20464;-50
2021/07/12 01:36:59;;;;;;;8.02;4.65;;;;;;;11.78;100.00;95661.69;1036321;28;20376;-50
2021/07/12 01:37:51;;;;;;;10.55;5.00;;;;;;;11.78;100.00;95656.44;1036319;28;20026;-50
2021/07/12 01:38:29;;;;;;;7.70;4.30;;;;;;;11.77;100.00;95660.03;1036320;28;20013;-50
2021/07/12 01:39:05;;;;;;;7.22;4.60;;;;;;;11.76;100.00;95653.13;1036255;28;20026;-48
2021/07/12 01:39:45;;;;;;;7.40;4.63;;;;;;;11.74;100.00;95660.28;1036413;28;20042;-49
2021/07/12 01:40:36;;;;;;;7.72;4.97;;;;;;;11.73;100.00;95648.13;1036448;28;20014;-49
2021/07/12 01:41:19;;;;;;;7.50;4.60;;;;;;;11.75;100.00;95654.09;1036234;28;20295;-49
2021/07/12 01:42:00;;;;;;;7.78;4.57;;;;;;;11.76;100.00;95654.91;1036309;28;20036;-50
2021/07/12 01:42:44;;;;;;;7.63;4.88;;;;;;;11.77;100.00;95651.31;1036237;28;20026;-52
2021/07/12 01:43:28;;;;;;;9.70;5.32;;;;;;;11.76;100.00;95660.97;1036255;28;20018;-50
2021/07/12 01:44:12;;;;;;;7.80;5.35;;;;;;;11.78;100.00;95655.63;1031840;28;20125;-51
2021/07/12 01:45:00;;;;;;;13.35;5.10;;;;;;;11.78;100.00;95656.44;1031911;28;20091;-50
2021/07/12 01:45:35;;;;;;;14.02;5.30;;;;;;;11.81;100.00;95658.84;1031962;28;20504;-50
2021/07/12 01:46:11;;;;;;;9.35;5.85;;;;;;;11.83;100.00;95663.97;1036381;28;20480;-51
2021/07/12 01:46:46;;;;;;;9.43;5.28;;;;;;;11.82;100.00;95663.16;1036236;28;20044;-51
2021/07/12 01:47:37;;;;;;;8.63;4.93;;;;;;;11.81;100.00;95658.84;1031920;28;20499;-50
2021/07/12 01:48:10;;;;;;;16.92;7.00;;;;;;;11.82;100.00;95654.41;1032047;28;20026;-53
2021/07/12 01:49:01;;;;;;;12.13;7.47;;;;;;;11.82;100.00;95652.66;1031928;28;20065;-50
2021/07/12 01:49:45;;;;;;;10.35;7.85;;;;;;;11.81;100.00;95650.13;1036155;28;20097;-50
2021/07/12 01:50:30;;;;;;;11.82;8.43;;;;;;;11.78;100.00;95659.06;1036372;28;20030;-50
2021/07/12 01:51:04;;;;;;;12.02;7.95;;;;;;;11.79;100.00;95652.06;1036232;28;20022;-49
2021/07/12 01:51:44;;;;;;;11.95;8.05;;;;;;;11.77;100.00;95646.91;1035803;28;20018;-51
2021/07/12 01:52:23;;;;;;;9.73;6.95;;;;;;;11.74;100.00;95648.94;1036303;28;20044;-50
2021/07/12 01:53:09;;;;;;;12.57;8.15;;;;;;;11.76;100.00;95647.03;1036104;28;20029;-50
2021/07/12 01:53:42;;;;;;;10.00;7.32;;;;;;;11.75;100.00;95638.34;1035651;28;20021;-49
2021/07/12 01:54:17;;;;;;;13.18;7.55;;;;;;;11.76;100.00;95644.41;1036332;28;20472;-51
2021/07/12 01:54:59;;;;;;;10.40;7.97;;;;;;;11.76;100.00;95644.41;1036305;28;20029;-51
2021/07/12 01:55:51;;;;;;;14.00;7.90;;;;;;;11.75;100.00;95633.09;1036395;28;20028;-51
2021/07/12 01:56:26;;;;;;;12.25;7.75;;;;;;;11.75;100.00;95638.34;1036372;28;20010;-51
2021/07/12 01:57:07;;;;;;;12.13;7.82;;;;;;;11.74;100.00;95626.16;1036149;28;20028;-49
2021/07/12 01:57:48;;;;;;;9.13;6.03;;;;;;;11.74;100.00;95628.78;1036281;28;20250;-50
2021/07/12 01:58:36;;;;;;;10.45;6.82;;;;;;;11.74;100.00;95626.16;1036330;28;20021;-51
2021/07/12 01:59:10;;;;;;;9.55;6.85;;;;;;;11.72;100.00;95624.63;1036227;28;20036;-51
2021/07/12 01:59:56;;;;;;;11.30;7.05;;;;;;;11.72;100.00;95625.44;1036301;28;20069;-49
2021/07/12 02:00:27;;;;;;;11.43;6.55;;;;;;;11.67;100.00;95615.34;1036066;28;20022;-50
2021/07/12 02:00:57;;;;;;;13.15;6.15;;;;;;;11.68;100.00;95611.72;1036063;28;20022;-50
2021/07/12 02:01:29;;;;;;;7.80;5.82;;;;;;;11.67;100.00;95615.34;1036129;28;20014;-51
2021/07/12 02:01:59;;;;;;;10.85;6.35;;;;;;;11.66;100.00;95612.81;1036114;28;20547;-50
2021/07/12 02:02:31;;;;;;;10.80;6.00;;;;;;;11.64;100.00;95609.50;1036274;28;20006;-53
2021/07/12 02:03:02;;;;;;;9.52;6.85;;;;;;;11.63;100.00;95618.31;1036149;28;20014;-51
2021/07/12 02:03:33;;;;;;;10.32;7.20;;;;;;;11.61;100.00;95612.34;1035756;28;20022;-51
2021/07/12 02:04:04;;;;;;;8.60;5.78;;;;;;;11.60;100.00;95621.16;1036041;28;20018;-48
2021/07/12 02:04:34;;;;;;;9.98;5.97;;;;;;;11.59;100.00;95614.25;1031993;28;20437;-51
2021/07/12 02:05:16;;;;;;;11.25;6.47;;;;;;;11.60;100.00;95621.16;1031817;28;20018;-50
2021/07/12 02:05:46;;;;;;;13.40;6.80;;;;;;;11.60;100.00;95616.78;1031944;28;20027;-50
2021/07/12 02:06:20;;;;;;;9.32;6.65;;;;;;;11.61;100.00;95620.22;1033533;28;20018;-50
2021/07/12 02:06:50;;;;;;;8.18;6.00;;;;;;;11.61;100.00;95617.59;1036199;28;20426;-50
2021/07/12 02:07:21;;;;;;;10.48;5.57;;;;;;;11.63;100.00;95615.69;1036207;28;20022;-51
2021/07/12 02:07:52;;;;;;;13.95;6.68;;;;;;;11.61;100.00;95617.59;1036271;28;20025;-50
2021/07/12 02:08:23;;;;;;;8.80;6.05;;;;;;;11.59;100.00;95619.50;1036181;28;20022;-51
2021/07/12 02:08:54;;;;;;;8.35;5.97;;;;;;;11.59;100.00;95622.97;1036068;28;20028;-51
2021/07/12 02:09:24;;;;;;;8.27;6.25;;;;;;;11.55;100.00;95613.69;1036198;28;20072;-52
2021/07/12 02:09:55;;;;;;;12.10;5.90;;;;;;;11.57;100.00;95618.81;1036350;28;20049;-51
2021/07/12 02:10:27;;;;;;;7.75;6.53;;;;;;;11.58;100.00;95625.69;1036237;28;20022;-51
2021/07/12 02:10:59;;;;;;;10.85;6.47;;;;;;;11.58;100.00;95620.47;1031750;28;20026;-50
2021/07/12 02:11:30;;;;;;;10.85;6.57;;;;;;;11.56;100.00;95623.22;1031881;28;20093;-51
2021/07/12 02:12:01;;;;;;;9.07;6.15;;;;;;;11.54;100.00;95617.25;1031890;28;20018;-51
2021/07/12 02:12:33;;;;;;;10.23;6.20;;;;;;;11.55;100.00;95620.72;1032263;28;20093;-50
2021/07/12 02:13:05;;;;;;;11.98;5.28;;;;;;;11.56;100.00;95617.97;1036097;28;20373;-49
2021/07/12 02:13:36;;;;;;;7.65;5.85;;;;;;;11.52;100.00;95619.16;1035683;28;20026;-50
2021/07/12 02:14:07;;;;;;;10.30;5.72;;;;;;;11.54;100.00;95622.50;1036217;28;20029;-51
2021/07/12 02:14:38;;;;;;;11.30;5.63;;;;;;;11.54;100.00;95622.50;1036136;28;20021;-51
2021/07/12 02:15:09;;;;;;;6.40;4.93;;;;;;;11.55;100.00;95620.72;1036145;28;20383;-48
2021/07/12 02:15:43;;;;;;;7.22;5.35;;;;;;;11.54;100.00;95616.41;1036220;28;20017;-49
2021/07/12 02:16:15;;;;;;;10.85;5.30;;;;;;;11.55;100.00;95612.84;1036205;28;20036;-50
2021/07/12 02:16:48;;;;;;;7.75;5.70;;;;;;;11.56;100.00;95614.50;1036024;28;20100;-51
2021/07/12 02:17:19;;;;;;;8.40;6.05;;;;;;;11.55;100.00;95615.47;1036095;28;20018;-52
2021/07/12 02:17:50;;;;;;;6.80;5.40;;;;;;;11.56;100.00;95620.59;1036224;28;20033;-50
2021/07/12 02:18:24;;;;;;;11.20;6.82;;;;;;;11.56;100.00;95619.75;1036298;28;20391;-50
2021/07/12 02:18:55;;;;;;;7.65;5.90;;;;;;;11.55;100.00;95618.09;1036013;28;20022;-53
2021/07/12 02:19:27;;;;;;;7.13;5.47;;;;;;;11.55;100.00;95620.72;1036112;28;20029;-50
2021/07/12 02:19:59;;;;;;;10.88;5.57;;;;;;;11.55;100.00;95616.31;1036230;28;20021;-50
2021/07/12 02:20:30;;;;;;;9.15;5.68;;;;;;;11.56;100.00;95617.97;1036265;28;20025;-50
2021/07/12 02:21:01;;;;;;;8.55;5.97;;;;;;;11.55;100.00;95618.91;1035929;28;20548;-50
2021/07/12 02:21:33;;;;;;;8.85;6.28;;;;;;;11.57;100.00;95621.44;1036180;28;20080;-51
2021/07/12 02:22:04;;;;;;;10.98;6.35;;;;;;;11.56;100.00;95619.75;1036183;28;20443;-50
2021/07/12 02:22:35;;;;;;;9.07;6.13;;;;;;;11.57;100.00;95610.94;1036208;28;20026;-53
2021/07/12 02:23:07;;;;;;;8.02;6.00;;;;;;;11.61;100.00;95614.97;1035944;28;20612;-50
2021/07/12 02:23:40;;;;;;;7.75;6.05;;;;;;;11.58;100.00;95610.81;1035576;28;20072;-51
2021/07/12 02:24:11;;;;;;;10.73;6.93;;;;;;;11.59;100.00;95617.72;1036193;28;20021;-52
2021/07/12 02:24:42;;;;;;;8.70;6.05;;;;;;;11.59;100.00;95615.09;1036247;28;20017;-50
2021/07/12 02:25:14;;;;;;;8.82;6.43;;;;;;;11.57;100.00;95611.75;1035929;28;20037;-50
2021/07/12 02:25:45;;;;;;;8.57;6.63;;;;;;;11.59;100.00;95617.72;1036269;28;20021;-50
2021/07/12 02:26:15;;;;;;;8.38;6.55;;;;;;;11.58;100.00;95615.22;1036116;28;20495;-50
2021/07/12 02:26:46;;;;;;;8.73;6.90;;;;;;;11.58;100.00;95620.47;1036150;28;20064;-51
2021/07/12 02:27:17;;;;;;;13.90;8.18;;;;;;;11.57;100.00;95617.00;1035953;28;20484;-50
2021/07/12 02:27:48;;;;;;;10.15;7.18;;;;;;;11.57;100.00;95617.00;1036250;28;20026;-51
2021/07/12 02:28:19;;;;;;;9.18;7.45;;;;;;;11.59;100.00;95622.13;1036167;28;20083;-50
2021/07/12 02:28:51;;;;;;;10.48;8.95;;;;;;;11.59;100.00;95617.72;1036169;28;20472;-50
2021/07/12 02:29:22;;;;;;;10.90;7.95;;;;;;;11.60;100.00;95615.91;1035904;28;20022;-51
2021/07/12 02:29:53;;;;;;;12.05;7.63;;;;;;;11.57;100.00;95619.63;1036163;28;20404;-50
2021/07/12 02:30:24;;;;;;;13.02;8.10;;;;;;;11.56;100.00;95611.88;1036179;28;20030;-50
2021/07/12 02:30:55;;;;;;;10.88;8.00;;;;;;;11.55;100.00;95613.69;1036196;28;20026;-50
2021/07/12 02:31:25;;;;;;;10.23;8.38;;;;;;;11.56;100.00;95610.09;1035934;28;20033;-52
2021/07/12 02:31:56;;;;;;;10.02;8.15;;;;;;;11.57;100.00;95616.19;1036099;28;20026;-50
2021/07/12 02:32:27;;;;;;;9.88;7.78;;;;;;;11.58;100.00;95623.09;1036197;28;20033;-51
2021/07/12 02:32:58;;;;;;;15.15;9.73;;;;;;;11.61;100.00;95617.59;1036058;28;20036;-51
2021/07/12 02:33:28;;;;;;;11.30;8.80;;;;;;;11.62;100.00;95621.91;1035600;28;20032;-54
2021/07/12 02:33:59;;;;;;;10.98;8.65;;;;;;;11.62;100.00;95622.72;1031544;28;20109;-51
2021/07/12 02:34:30;;;;;;;10.63;7.78;;;;;;;11.60;100.00;95616.78;1031841;28;20362;-50
2021/07/12 02:35:01;;;;;;;9.13;7.70;;;;;;;11.61;100.00;95621.03;1031773;28;20022;-50
2021/07/12 02:35:32;;;;;;;9.45;7.82;;;;;;;11.62;100.00;95621.91;1031564;28;20026;-52
2021/07/12 02:36:03;;;;;;;9.52;8.32;;;;;;;11.61;100.00;95622.84;1031762;28;20022;-48
2021/07/12 02:36:34;;;;;;;11.00;9.38;;;;;;;11.62;100.00;95624.53;1027771;28;20015;-51
2021/07/12 02:37:05;;;;;;;11.30;9.10;;;;;;;11.61;100.00;95618.41;1027744;28;20019;-51
2021/07/12 02:37:37;;;;;;;13.27;9.75;;;;;;;11.64;100.00;95618.19;1024004;28;20233;-50
2021/07/12 02:38:08;;;;;;;12.95;8.43;;;;;;;11.67;100.00;95627.59;1028243;28;20049;-50
2021/07/12 02:38:39;;;;;;;11.50;8.32;;;;;;;11.64;100.00;95620.00;1031829;28;20018;-50